• Join FlightAware (Why Join?)
  • Login
  • US Flag 
01:39PM EDT


 

Airport Tracker/Info


-or-


 

Live Flight TrackerFlight Track Log ✈ N228TR ✈ 14-Jul-2013 ✈ KTEB - KLUK

Flight Track Log - Related Links

Times and Time Zones

All times are in EDT time to prevent confusion due to time zone crossing. See the N228TR flight status page for this flight to view local times or setup timezone preferences in your user account.

Time Position Orientation Groundspeed Altitude Reporting Facility
EDT Latitude Longitude Course Direction KTS MPH feet Rate Location/Type
09:03PM 40.8333 -74.1167 246° West 99 114 1,200  Level New York TRACON
09:04PM 40.8167 -74.1333 217° Southwest 107 123 1,600 540 Climbing New York TRACON
09:05PM 40.8167 -74.1667 270° West 99 114 2,300 660 Climbing New York TRACON
09:06PM 40.8000 -74.2167 246° West 103 119 3,000 540 Climbing New York TRACON
09:07PM 40.7833 -74.2500 237° Southwest 113 130 3,500 420 Climbing New York TRACON
09:08PM 40.7603 -74.3024 246° West  Level FlightAware Approximate
09:08PM 40.7667 -74.2833 237° Southwest 118 136 3,900  Level New York TRACON
09:09PM 40.7500 -74.3167 237° Southwest 133 153 4,100 60 Climbing New York TRACON
09:10PM 40.7333 -74.3667 246° West 143 165 4,100  Level New York TRACON
09:11PM 40.7167 -74.4167 246° West 147 169 4,100 240 Level New York TRACON
09:12PM 40.7000 -74.4500 237° Southwest 127 146 4,600 480 Climbing New York TRACON
09:13PM 40.6833 -74.5000 246° West 119 137 5,100  Climbing New York TRACON
09:15PM 40.6615 -74.5853 251° West  Level FlightAware Approximate
09:22PM 40.5663 -74.9539 251° West  Level FlightAware Approximate
09:23PM 40.5527 -75.0065 251° West  Level FlightAware Approximate
09:24PM 40.5504 -75.0619 272° West  Level FlightAware Approximate
09:25PM 40.5519 -75.1174 272° West  Level FlightAware Approximate
09:26PM 40.5535 -75.1730 272° West  Level FlightAware Approximate
09:27PM 40.5550 -75.2285 272° West  Level FlightAware Approximate
09:28PM 40.5566 -75.2841 272° West  Level FlightAware Approximate
09:29PM 40.5580 -75.3396 272° West  Level FlightAware Approximate
09:30PM 40.5595 -75.3952 272° West  Level FlightAware Approximate
09:31PM 40.5610 -75.4507 272° West  Level FlightAware Approximate
09:32PM 40.5624 -75.5063 272° West  Level FlightAware Approximate
09:33PM 40.5637 -75.5618 272° West  Level FlightAware Approximate
09:34PM 40.5651 -75.6174 272° West  Level FlightAware Approximate
09:35PM 40.5664 -75.6729 272° West  Level FlightAware Approximate
09:36PM 40.5549 -75.7258 250° West  Level FlightAware Approximate
09:37PM 40.5405 -75.7780 250° West  Level FlightAware Approximate
09:38PM 40.5260 -75.8302 250° West  Level FlightAware Approximate
09:39PM 40.5115 -75.8824 250° West  Level FlightAware Approximate
09:40PM 40.4970 -75.9345 250° West  Level FlightAware Approximate
09:41PM 40.4828 -75.9868 259° West  Level FlightAware Approximate
09:42PM 40.4751 -76.0413 259° West  Level FlightAware Approximate
09:43PM 40.4673 -76.0959 259° West  Level FlightAware Approximate
09:44PM 40.4545 -76.1488 252° West  Level FlightAware Approximate
09:45PM 40.4388 -76.2002 246° West  Level FlightAware Approximate
09:46PM 40.4219 -76.2511 246° West  Level FlightAware Approximate
09:47PM 40.4049 -76.3018 246° West  Level FlightAware Approximate
09:48PM 40.3901 -76.3537 251° West  Level FlightAware Approximate
09:49PM 40.3761 -76.4060 251° West  Level FlightAware Approximate
09:50PM 40.3621 -76.4583 251° West  Level FlightAware Approximate
09:51PM 40.3480 -76.5106 251° West  Level FlightAware Approximate
09:52PM 40.3340 -76.5628 251° West  Level FlightAware Approximate
09:53PM 40.3199 -76.6150 251° West  Level FlightAware Approximate
09:54PM 40.3058 -76.6672 250° West  Level FlightAware Approximate
09:55PM 40.2916 -76.7194 250° West  Level FlightAware Approximate
09:56PM 40.2846 -76.7728 274° West  Level FlightAware Approximate
09:57PM 40.2875 -76.8280 274° West  Level FlightAware Approximate
09:58PM 40.2905 -76.8832 274° West  Level FlightAware Approximate
09:59PM 40.2934 -76.9385 274° West  Level FlightAware Approximate
10:00PM 40.2962 -76.9937 274° West  Level FlightAware Approximate
10:01PM 40.2991 -77.0489 274° West  Level FlightAware Approximate
10:02PM 40.2944 -77.1052 259° West  Level FlightAware Approximate
10:03PM 40.2863 -77.1604 259° West  Level FlightAware Approximate
10:04PM 40.2782 -77.2157 259° West  Level FlightAware Approximate
10:05PM 40.2701 -77.2709 259° West  Level FlightAware Approximate
10:06PM 40.2620 -77.3261 259° West  Level FlightAware Approximate
10:07PM 40.2538 -77.3813 259° West  Level FlightAware Approximate
10:08PM 40.2456 -77.4365 259° West  Level FlightAware Approximate
10:09PM 40.2374 -77.4916 259° West  Level FlightAware Approximate
10:10PM 40.2292 -77.5468 259° West  Level FlightAware Approximate
10:11PM 40.2209 -77.6019 259° West  Level FlightAware Approximate
10:12PM 40.2126 -77.6571 259° West  Level FlightAware Approximate
10:13PM 40.2043 -77.7122 259° West  Level FlightAware Approximate
10:14PM 40.1959 -77.7673 259° West  Level FlightAware Approximate
10:15PM 40.1875 -77.8224 259° West  Level FlightAware Approximate
10:16PM 40.1796 -77.8775 260° West  Level FlightAware Approximate
10:16PM 40.2128 -77.6439 260° West 148 170 6,000  Level Cleveland Center
10:17PM 40.1722 -77.9328 260° West  Level FlightAware Approximate
10:17PM 40.2061 -77.7094 262° West 153 176 6,100  Level Cleveland Center
10:18PM 40.1647 -77.9881 260° West  Level FlightAware Approximate
10:18PM 40.1950 -77.7697 256° West 155 178 6,000  Level Cleveland Center
10:19PM 40.1573 -78.0434 260° West  Level FlightAware Approximate
10:19PM 40.1881 -77.8244 261° West 154 177 6,000  Level Cleveland Center
10:20PM 40.1498 -78.0987 260° West  Level FlightAware Approximate
10:20PM 40.1831 -77.8792 263° West 155 178 6,000  Level Cleveland Center
10:21PM 40.1422 -78.1539 260° West  Level FlightAware Approximate
10:21PM 40.1761 -77.9336 261° West 152 175 6,000  Level Cleveland Center
10:22PM 40.1711 -77.9883 263° West 152 175 6,000  Level Cleveland Center
10:23PM 40.1619 -78.0456 258° West 153 176 6,000  Level Cleveland Center
10:24PM 40.1569 -78.1003 263° West 154 177 6,100  Climbing Cleveland Center
10:25PM 40.1517 -78.1547 263° West 153 176 6,000  Descending Cleveland Center
10:26PM 40.1425 -78.2094 258° West 151 174 6,100  Climbing Cleveland Center
10:27PM 40.1333 -78.2639 258° West 149 171 6,000 -60 Descending Cleveland Center
10:28PM 40.1239 -78.3186 257° West 150 173 6,000  Level Cleveland Center
10:29PM 40.1167 -78.3706 260° West 148 170 6,100  Climbing Cleveland Center
10:30PM 40.1069 -78.4197 256° West 146 168 6,000 -60 Descending Cleveland Center
10:31PM 40.0978 -78.4769 258° West 150 173 6,000  Level Cleveland Center
10:32PM 40.0925 -78.5314 263° West 149 171 6,000  Level Cleveland Center
10:33PM 40.0831 -78.5806 256° West 147 169 6,000  Level Cleveland Center
10:34PM 40.0775 -78.6322 262° West 145 167 6,100  Climbing Cleveland Center
10:35PM 40.0700 -78.6839 259° West 147 169 6,000 -60 Descending Cleveland Center
10:36PM 40.0586 -78.7414 256° West 148 170 6,000  Level Cleveland Center
10:37PM 40.0553 -78.7931 265° West 147 169 6,000  Level Cleveland Center
10:38PM 40.0478 -78.8447 259° West 146 168 6,000  Level Cleveland Center
10:39PM 40.0400 -78.8992 259° West 146 168 6,100  Climbing Cleveland Center
10:40PM 40.0325 -78.9536 260° West 149 171 6,000 -60 Descending Cleveland Center
10:41PM 40.0269 -79.0053 262° West 149 171 6,000  Level Cleveland Center
10:42PM 40.0236 -79.0594 265° West 145 167 6,100  Climbing Cleveland Center
10:43PM 40.0158 -79.1111 259° West 150 173 6,000 -60 Descending Cleveland Center
10:44PM 40.0064 -79.1708 258° West 150 173 6,000  Level Cleveland Center
10:45PM 39.9986 -79.2172 258° West 146 168 6,100  Climbing Cleveland Center
10:46PM 39.9908 -79.2689 259° West 147 169 6,100  Level Cleveland Center
10:47PM 39.9872 -79.3231 265° West 147 169 6,100 -60 Level Cleveland Center
10:48PM 39.9817 -79.3747 262° West 146 168 6,000  Descending Cleveland Center
10:50PM 39.9657 -79.4380 252° West  Level FlightAware Approximate
10:56PM 39.9183 -79.7819 258° West 155 178 6,100  Level Cleveland Center
10:57PM 39.9067 -79.8036 260° West  Level FlightAware Approximate
10:57PM 39.9125 -79.8333 262° West 155 178 6,100  Level Cleveland Center
10:58PM 39.8991 -79.8559 258° West  Level FlightAware Approximate
10:58PM 39.9067 -79.8847 262° West 155 178 6,000  Level Cleveland Center
10:59PM 39.8909 -79.9080 258° West  Level FlightAware Approximate
10:59PM 39.9006 -79.9364 261° West 150 173 6,100  Level Cleveland Center
11:00PM 39.8827 -79.9602 258° West  Level FlightAware Approximate
11:00PM 39.8906 -79.9878 256° West 150 173 6,100  Level Cleveland Center
11:01PM 39.8745 -80.0123 258° West  Level FlightAware Approximate
11:01PM 39.8803 -80.0367 255° West 144 166 6,100  Level Cleveland Center
11:02PM 39.8703 -80.0881 256° West 144 166 6,100  Level Cleveland Center
11:03PM 39.8600 -80.1369 255° West 144 166 6,100  Level Cleveland Center
11:04PM 39.8558 -80.1883 264° West 144 166 6,100  Level Cleveland Center
11:05PM 39.8500 -80.2425 262° West 144 166 6,200  Climbing Cleveland Center
11:06PM 39.8417 -80.2911 257° West 144 166 6,100 -60 Descending Cleveland Center
11:07PM 39.8333 -80.3425 258° West 144 166 6,100  Level Cleveland Center
11:08PM 39.8272 -80.3967 262° West 144 166 6,100  Level Cleveland Center
11:09PM 39.8189 -80.4481 258° West 144 166 6,100  Level Cleveland Center
11:10PM 39.8108 -80.5019 259° West 144 166 6,100  Level Cleveland Center
11:11PM 39.8044 -80.5506 260° West 144 166 6,100  Level Cleveland Center
11:12PM 39.7961 -80.6047 259° West 144 166 6,100  Level Cleveland Center
11:13PM 39.7858 -80.6586 256° West 144 166 6,100  Level Cleveland Center
11:14PM 39.7772 -80.7100 258° West 144 166 6,100  Level Cleveland Center
11:15PM 39.7689 -80.7642 259° West 149 171 6,200  Climbing Cleveland Center
11:16PM 39.7583 -80.8153 255° West 149 171 6,200  Level Cleveland Center
11:17PM 39.7500 -80.8667 258° West 144 166 6,200 -60 Level Cleveland Center
11:18PM 39.7414 -80.9206 258° West 144 166 6,100 -60 Descending Cleveland Center
11:19PM 39.7289 -80.9692 252° West 144 166 6,100  Level Cleveland Center
11:20PM 39.7183 -81.0175 254° West 144 166 6,100  Level Cleveland Center
11:22PM 39.7028 -81.0994 256° West 145 167 6,100  Level Indianapolis Center
11:23PM 39.6933 -81.1500 256° West 144 166 6,100 -60 Level Indianapolis Center
11:24PM 39.6858 -81.2033 260° West 149 171 6,000 -60 Descending Indianapolis Center
11:25PM 39.6769 -81.2531 257° West 144 166 6,000  Level Indianapolis Center
11:26PM 39.6681 -81.3042 257° West 145 167 6,100  Climbing Indianapolis Center
11:27PM 39.6583 -81.3556 256° West 146 168 6,000  Descending Indianapolis Center
11:28PM 39.6469 -81.4028 253° West 139 160 6,100  Climbing Indianapolis Center
11:29PM 39.6367 -81.4531 255° West 144 166 6,100  Level Indianapolis Center
11:30PM 39.6289 -81.5058 259° West 148 170 6,100  Level Indianapolis Center
11:31PM 39.6161 -81.5675 255° West 148 170 6,100  Level Indianapolis Center
11:32PM 39.6092 -81.6181 260° West 144 166 6,100  Level Indianapolis Center
11:33PM 39.6008 -81.6686 258° West 144 166 6,200  Climbing Indianapolis Center
11:34PM 39.5922 -81.7222 258° West 150 173 6,100 -60 Descending Indianapolis Center
11:35PM 39.5839 -81.7736 258° West 147 169 6,100  Level Indianapolis Center
11:36PM 39.5747 -81.8242 257° West 145 167 6,100  Level Indianapolis Center
11:37PM 39.5656 -81.8767 257° West 147 169 6,100  Level Indianapolis Center
11:38PM 39.5558 -81.9294 257° West 150 173 6,100 -60 Level Indianapolis Center
11:39PM 39.5472 -81.9817 258° West 149 171 6,000 -60 Descending Indianapolis Center
11:40PM 39.5383 -82.0339 258° West 149 171 6,000  Level Indianapolis Center
11:41PM 39.5294 -82.0853 257° West 147 169 6,100  Climbing Indianapolis Center
11:42PM 39.5203 -82.1339 256° West 150 173 6,000 -120 Descending Indianapolis Center
11:43PM 39.5100 -82.1875 256° West 151 174 5,900  Descending Indianapolis Center
11:44PM 39.5019 -82.2386 258° West 148 170 6,000  Climbing Indianapolis Center
11:45PM 39.4928 -82.2931 258° West 150 173 6,000  Level Indianapolis Center
11:46PM 39.4839 -82.3472 258° West 153 176 6,000 -120 Level Indianapolis Center
11:47PM 39.4772 -82.3878 258° West 150 173 5,900  Descending Indianapolis Center
11:48PM 39.4703 -82.4408 260° West 152 175 6,000  Climbing Indianapolis Center
11:49PM 39.4611 -82.4964 258° West 152 175 6,000  Level Indianapolis Center
11:50PM 39.4519 -82.5492 257° West 153 176 6,100  Climbing Indianapolis Center
11:51PM 39.4381 -82.6131 254° West 149 171 6,000 -60 Descending Indianapolis Center
11:52PM 39.4275 -82.6667 256° West 151 174 6,000  Level Indianapolis Center
11:53PM 39.4197 -82.7214 260° West 153 176 6,000  Level Indianapolis Center
11:54PM 39.4106 -82.7742 257° West 150 173 6,000  Level Indianapolis Center
11:55PM 39.3989 -82.8269 254° West 150 173 6,000 -60 Level Indianapolis Center
11:56PM 39.3881 -82.8800 255° West 151 174 5,900  Descending Indianapolis Center
11:57PM 39.3806 -82.9336 260° West 152 175 6,000  Climbing Indianapolis Center
11:58PM 39.3722 -82.9875 259° West 151 174 6,000  Level Indianapolis Center
11:59PM 39.3628 -83.0392 257° West 148 170 6,000  Level Indianapolis Center
12:00AM 39.3519 -83.0908 255° West 147 169 6,100  Climbing Indianapolis Center
12:01AM 39.3450 -83.1433 260° West 147 169 6,000  Descending Indianapolis Center
12:02AM 39.3367 -83.1981 259° West 151 174 6,100  Climbing Indianapolis Center
12:03AM 39.3306 -83.2517 262° West 151 174 6,100  Level Indianapolis Center
12:04AM 39.3225 -83.3031 259° West 147 169 6,100 -60 Level Indianapolis Center
12:05AM 39.3150 -83.3569 260° West 149 171 6,000 -60 Descending Indianapolis Center
12:06AM 39.3050 -83.4092 256° West 149 171 6,000  Level Indianapolis Center
12:07AM 39.2969 -83.4511 256° West 146 168 6,000  Level Indianapolis Center
12:08AM 39.2847 -83.5111 255° West 145 167 6,000  Level Indianapolis Center
12:09AM 39.2717 -83.5622 252° West 147 169 6,000  Level Indianapolis Center
12:10AM 39.2614 -83.6133 255° West 147 169 6,100  Climbing Indianapolis Center
12:11AM 39.2522 -83.6644 257° West 146 168 6,000 -60 Descending Indianapolis Center
12:12AM 39.2433 -83.7150 257° West 146 168 6,000  Level Indianapolis Center
12:13AM 39.2339 -83.7672 257° West 147 169 6,000  Level Indianapolis Center
12:14AM 39.2286 -83.8139 262° West 147 169 6,000  Level Indianapolis Center
12:15AM 39.2242 -83.8656 264° West 146 168 6,000  Level Indianapolis Center
12:16AM 39.2175 -83.9228 261° West 144 166 6,100  Climbing Indianapolis Center
12:17AM 39.2133 -83.9792 265° West 149 171 6,000 -180 Descending Indianapolis Center
12:18AM 39.2111 -84.0267 267° West 150 173 5,800 -420 Descending Indianapolis Center
12:19AM 39.2061 -84.0875 264° West 166 191 5,200 -600 Descending Indianapolis Center
12:20AM 39.2011 -84.1464 264° West 166 191 4,600 -780 Descending Indianapolis Center
12:21AM 39.1942 -84.2025 261° West 160 184 3,700 -900 Descending Indianapolis Center
12:22AM 39.1814 -84.2533 252° West 155 178 2,900 -600 Descending Indianapolis Center
12:23AM 39.1614 -84.3053 244° Southwest 152 175 2,600 -300 Descending Indianapolis Center